sensor_id;sensor_type;location;lat;lon;timestamp;P1;durP1;ratioP1;P2;durP2;ratioP2
77061;SDS011;65989;51.686;5.138;2023-08-12T00:00:00;14.18;;;8.70;;
77061;SDS011;65989;51.686;5.138;2023-08-12T00:02:33;15.90;;;8.63;;
77061;SDS011;65989;51.686;5.138;2023-08-12T00:04:58;16.80;;;8.90;;
77061;SDS011;65989;51.686;5.138;2023-08-12T00:07:24;16.65;;;9.27;;
77061;SDS011;65989;51.686;5.138;2023-08-12T00:09:49;23.40;;;9.13;;
77061;SDS011;65989;51.686;5.138;2023-08-12T00:12:14;18.33;;;9.57;;
77061;SDS011;65989;51.686;5.138;2023-08-12T00:14:40;18.70;;;9.80;;
77061;SDS011;65989;51.686;5.138;2023-08-12T00:17:05;18.20;;;10.80;;
77061;SDS011;65989;51.686;5.138;2023-08-12T00:19:30;18.73;;;10.43;;
77061;SDS011;65989;51.686;5.138;2023-08-12T00:21:55;16.00;;;10.40;;
77061;SDS011;65989;51.686;5.138;2023-08-12T00:24:21;20.80;;;11.30;;
77061;SDS011;65989;51.686;5.138;2023-08-12T00:26:46;20.27;;;11.50;;
77061;SDS011;65989;51.686;5.138;2023-08-12T00:29:11;20.80;;;11.30;;
77061;SDS011;65989;51.686;5.138;2023-08-12T00:31:36;18.50;;;11.60;;
77061;SDS011;65989;51.686;5.138;2023-08-12T00:34:02;19.10;;;12.50;;
77061;SDS011;65989;51.686;5.138;2023-08-12T00:36:27;23.67;;;12.97;;
77061;SDS011;65989;51.686;5.138;2023-08-12T00:38:52;22.70;;;12.40;;
77061;SDS011;65989;51.686;5.138;2023-08-12T00:41:17;24.30;;;13.17;;
77061;SDS011;65989;51.686;5.138;2023-08-12T00:43:43;20.17;;;12.53;;
77061;SDS011;65989;51.686;5.138;2023-08-12T00:46:08;24.33;;;14.20;;
77061;SDS011;65989;51.686;5.138;2023-08-12T00:48:33;23.10;;;13.30;;
77061;SDS011;65989;51.686;5.138;2023-08-12T00:50:58;30.43;;;14.20;;
77061;SDS011;65989;51.686;5.138;2023-08-12T00:53:24;22.00;;;13.13;;
77061;SDS011;65989;51.686;5.138;2023-08-12T00:55:49;26.43;;;13.97;;
77061;SDS011;65989;51.686;5.138;2023-08-12T00:58:14;28.37;;;14.10;;
77061;SDS011;65989;51.686;5.138;2023-08-12T01:00:40;22.50;;;14.23;;
77061;SDS011;65989;51.686;5.138;2023-08-12T01:03:06;23.80;;;13.63;;
77061;SDS011;65989;51.686;5.138;2023-08-12T01:05:31;24.98;;;13.95;;
77061;SDS011;65989;51.686;5.138;2023-08-12T01:07:58;20.03;;;13.07;;
77061;SDS011;65989;51.686;5.138;2023-08-12T01:10:23;22.80;;;13.77;;
77061;SDS011;65989;51.686;5.138;2023-08-12T01:12:52;23.33;;;13.47;;
77061;SDS011;65989;51.686;5.138;2023-08-12T01:15:21;19.20;;;13.63;;
77061;SDS011;65989;51.686;5.138;2023-08-12T01:17:46;20.13;;;13.98;;
77061;SDS011;65989;51.686;5.138;2023-08-12T01:20:16;22.70;;;14.07;;
77061;SDS011;65989;51.686;5.138;2023-08-12T01:22:43;21.67;;;13.33;;
77061;SDS011;65989;51.686;5.138;2023-08-12T01:25:09;24.85;;;14.45;;
77061;SDS011;65989;51.686;5.138;2023-08-12T01:27:35;19.73;;;13.47;;
77061;SDS011;65989;51.686;5.138;2023-08-12T01:30:00;19.60;;;13.65;;
77061;SDS011;65989;51.686;5.138;2023-08-12T01:32:40;24.50;;;13.93;;
77061;SDS011;65989;51.686;5.138;2023-08-12T01:35:12;26.35;;;14.27;;
77061;SDS011;65989;51.686;5.138;2023-08-12T01:37:40;24.17;;;14.88;;
77061;SDS011;65989;51.686;5.138;2023-08-12T01:40:07;22.10;;;13.73;;
77061;SDS011;65989;51.686;5.138;2023-08-12T01:42:34;23.08;;;13.88;;
77061;SDS011;65989;51.686;5.138;2023-08-12T01:45:01;20.40;;;13.53;;
77061;SDS011;65989;51.686;5.138;2023-08-12T01:47:27;23.55;;;14.02;;
77061;SDS011;65989;51.686;5.138;2023-08-12T01:49:52;24.20;;;14.25;;
77061;SDS011;65989;51.686;5.138;2023-08-12T01:52:17;23.53;;;14.83;;
77061;SDS011;65989;51.686;5.138;2023-08-12T01:54:42;22.23;;;14.37;;
77061;SDS011;65989;51.686;5.138;2023-08-12T01:57:08;28.30;;;14.63;;
77061;SDS011;65989;51.686;5.138;2023-08-12T01:59:34;26.77;;;14.77;;
77061;SDS011;65989;51.686;5.138;2023-08-12T02:02:00;22.60;;;15.73;;
77061;SDS011;65989;51.686;5.138;2023-08-12T02:04:25;20.90;;;14.77;;
77061;SDS011;65989;51.686;5.138;2023-08-12T02:06:51;24.67;;;15.37;;
77061;SDS011;65989;51.686;5.138;2023-08-12T02:09:16;28.73;;;14.70;;
77061;SDS011;65989;51.686;5.138;2023-08-12T02:11:41;23.57;;;15.07;;
77061;SDS011;65989;51.686;5.138;2023-08-12T02:14:07;23.93;;;15.03;;
77061;SDS011;65989;51.686;5.138;2023-08-12T02:16:32;20.63;;;14.73;;
77061;SDS011;65989;51.686;5.138;2023-08-12T02:18:57;24.03;;;14.93;;
77061;SDS011;65989;51.686;5.138;2023-08-12T02:21:22;24.27;;;15.27;;
77061;SDS011;65989;51.686;5.138;2023-08-12T02:23:47;26.50;;;15.70;;
77061;SDS011;65989;51.686;5.138;2023-08-12T02:26:13;23.60;;;14.80;;
77061;SDS011;65989;51.686;5.138;2023-08-12T02:28:38;23.67;;;15.23;;
77061;SDS011;65989;51.686;5.138;2023-08-12T02:31:03;24.30;;;15.27;;
77061;SDS011;65989;51.686;5.138;2023-08-12T02:33:28;25.83;;;15.03;;
77061;SDS011;65989;51.686;5.138;2023-08-12T02:35:54;25.80;;;15.60;;
77061;SDS011;65989;51.686;5.138;2023-08-12T02:38:22;24.05;;;15.45;;
77061;SDS011;65989;51.686;5.138;2023-08-12T02:40:48;23.00;;;14.57;;
77061;SDS011;65989;51.686;5.138;2023-08-12T02:43:14;25.88;;;15.65;;
77061;SDS011;65989;51.686;5.138;2023-08-12T02:45:39;25.83;;;15.17;;
77061;SDS011;65989;51.686;5.138;2023-08-12T02:48:04;23.20;;;14.83;;
77061;SDS011;65989;51.686;5.138;2023-08-12T02:50:30;25.40;;;15.30;;
77061;SDS011;65989;51.686;5.138;2023-08-12T02:52:55;22.50;;;15.13;;
77061;SDS011;65989;51.686;5.138;2023-08-12T02:55:20;26.02;;;14.95;;
77061;SDS011;65989;51.686;5.138;2023-08-12T02:57:45;28.87;;;15.53;;
77061;SDS011;65989;51.686;5.138;2023-08-12T03:00:11;23.70;;;14.80;;
77061;SDS011;65989;51.686;5.138;2023-08-12T03:02:37;24.08;;;14.23;;
77061;SDS011;65989;51.686;5.138;2023-08-12T03:05:02;25.37;;;14.10;;
77061;SDS011;65989;51.686;5.138;2023-08-12T03:07:28;23.40;;;14.43;;
77061;SDS011;65989;51.686;5.138;2023-08-12T03:09:53;29.27;;;14.63;;
77061;SDS011;65989;51.686;5.138;2023-08-12T03:12:18;22.27;;;13.93;;
77061;SDS011;65989;51.686;5.138;2023-08-12T03:14:44;25.40;;;14.68;;
77061;SDS011;65989;51.686;5.138;2023-08-12T03:17:09;28.67;;;14.20;;
77061;SDS011;65989;51.686;5.138;2023-08-12T03:19:34;22.63;;;13.63;;
77061;SDS011;65989;51.686;5.138;2023-08-12T03:21:59;21.07;;;12.63;;
77061;SDS011;65989;51.686;5.138;2023-08-12T03:24:25;19.80;;;13.20;;
77061;SDS011;65989;51.686;5.138;2023-08-12T03:26:50;27.67;;;13.77;;
77061;SDS011;65989;51.686;5.138;2023-08-12T03:29:15;21.83;;;12.60;;
77061;SDS011;65989;51.686;5.138;2023-08-12T03:31:40;21.30;;;12.63;;
77061;SDS011;65989;51.686;5.138;2023-08-12T03:34:05;22.37;;;12.50;;
77061;SDS011;65989;51.686;5.138;2023-08-12T03:36:31;20.47;;;11.87;;
77061;SDS011;65989;51.686;5.138;2023-08-12T03:38:56;23.33;;;12.67;;
77061;SDS011;65989;51.686;5.138;2023-08-12T03:41:21;21.33;;;11.37;;
77061;SDS011;65989;51.686;5.138;2023-08-12T03:43:46;16.87;;;11.07;;
77061;SDS011;65989;51.686;5.138;2023-08-12T03:46:12;21.57;;;11.17;;
77061;SDS011;65989;51.686;5.138;2023-08-12T03:48:37;18.60;;;10.47;;
77061;SDS011;65989;51.686;5.138;2023-08-12T03:51:02;17.50;;;10.83;;
77061;SDS011;65989;51.686;5.138;2023-08-12T03:53:27;21.73;;;10.50;;
77061;SDS011;65989;51.686;5.138;2023-08-12T03:55:53;17.00;;;9.90;;
77061;SDS011;65989;51.686;5.138;2023-08-12T03:58:18;17.67;;;9.70;;
77061;SDS011;65989;51.686;5.138;2023-08-12T04:00:43;18.97;;;10.20;;
77061;SDS011;65989;51.686;5.138;2023-08-12T04:03:08;18.50;;;9.17;;
77061;SDS011;65989;51.686;5.138;2023-08-12T04:05:34;16.27;;;8.80;;
77061;SDS011;65989;51.686;5.138;2023-08-12T04:07:59;22.30;;;9.00;;
77061;SDS011;65989;51.686;5.138;2023-08-12T04:10:24;14.17;;;8.77;;
77061;SDS011;65989;51.686;5.138;2023-08-12T04:12:50;18.05;;;8.52;;
77061;SDS011;65989;51.686;5.138;2023-08-12T04:15:15;18.77;;;8.60;;
77061;SDS011;65989;51.686;5.138;2023-08-12T04:17:40;16.70;;;8.30;;
77061;SDS011;65989;51.686;5.138;2023-08-12T04:20:06;18.53;;;8.43;;
77061;SDS011;65989;51.686;5.138;2023-08-12T04:22:32;19.23;;;8.75;;
77061;SDS011;65989;51.686;5.138;2023-08-12T04:24:57;14.70;;;8.07;;
77061;SDS011;65989;51.686;5.138;2023-08-12T04:27:22;15.57;;;8.00;;
77061;SDS011;65989;51.686;5.138;2023-08-12T04:29:47;15.80;;;7.97;;
77061;SDS011;65989;51.686;5.138;2023-08-12T04:32:13;16.93;;;8.40;;
77061;SDS011;65989;51.686;5.138;2023-08-12T04:34:38;18.43;;;8.53;;
77061;SDS011;65989;51.686;5.138;2023-08-12T04:37:03;17.37;;;8.40;;
77061;SDS011;65989;51.686;5.138;2023-08-12T04:39:31;19.47;;;8.87;;
77061;SDS011;65989;51.686;5.138;2023-08-12T04:41:57;16.83;;;9.07;;
77061;SDS011;65989;51.686;5.138;2023-08-12T04:44:22;18.87;;;8.93;;
77061;SDS011;65989;51.686;5.138;2023-08-12T04:46:48;22.47;;;9.70;;
77061;SDS011;65989;51.686;5.138;2023-08-12T04:49:13;16.80;;;9.57;;
77061;SDS011;65989;51.686;5.138;2023-08-12T04:51:38;19.97;;;10.07;;
77061;SDS011;65989;51.686;5.138;2023-08-12T04:54:03;19.70;;;9.33;;
77061;SDS011;65989;51.686;5.138;2023-08-12T04:56:29;16.35;;;9.55;;
77061;SDS011;65989;51.686;5.138;2023-08-12T04:58:54;19.10;;;10.03;;
77061;SDS011;65989;51.686;5.138;2023-08-12T05:01:20;17.30;;;9.57;;
77061;SDS011;65989;51.686;5.138;2023-08-12T05:03:45;19.23;;;10.10;;
77061;SDS011;65989;51.686;5.138;2023-08-12T05:06:10;19.30;;;10.03;;
77061;SDS011;65989;51.686;5.138;2023-08-12T05:08:35;19.03;;;10.00;;
77061;SDS011;65989;51.686;5.138;2023-08-12T05:11:01;18.83;;;10.30;;
77061;SDS011;65989;51.686;5.138;2023-08-12T05:13:26;20.43;;;10.60;;
77061;SDS011;65989;51.686;5.138;2023-08-12T05:15:53;20.52;;;10.52;;
77061;SDS011;65989;51.686;5.138;2023-08-12T05:18:18;20.97;;;10.53;;
77061;SDS011;65989;51.686;5.138;2023-08-12T05:20:43;21.40;;;10.57;;
77061;SDS011;65989;51.686;5.138;2023-08-12T05:23:08;16.43;;;10.30;;
77061;SDS011;65989;51.686;5.138;2023-08-12T05:25:34;17.23;;;10.00;;
77061;SDS011;65989;51.686;5.138;2023-08-12T05:27:59;22.35;;;10.40;;
77061;SDS011;65989;51.686;5.138;2023-08-12T05:30:24;16.77;;;9.77;;
77061;SDS011;65989;51.686;5.138;2023-08-12T05:32:50;17.47;;;10.00;;
77061;SDS011;65989;51.686;5.138;2023-08-12T05:35:15;16.67;;;9.53;;
77061;SDS011;65989;51.686;5.138;2023-08-12T05:37:40;17.57;;;8.87;;
77061;SDS011;65989;51.686;5.138;2023-08-12T05:40:07;16.83;;;8.60;;
77061;SDS011;65989;51.686;5.138;2023-08-12T05:42:33;15.73;;;8.57;;
77061;SDS011;65989;51.686;5.138;2023-08-12T05:44:59;15.17;;;9.03;;
77061;SDS011;65989;51.686;5.138;2023-08-12T05:47:24;17.90;;;8.80;;
77061;SDS011;65989;51.686;5.138;2023-08-12T05:49:49;14.03;;;9.07;;
77061;SDS011;65989;51.686;5.138;2023-08-12T05:52:14;12.97;;;8.23;;
77061;SDS011;65989;51.686;5.138;2023-08-12T05:54:39;15.60;;;8.43;;
77061;SDS011;65989;51.686;5.138;2023-08-12T05:57:05;14.43;;;8.23;;
77061;SDS011;65989;51.686;5.138;2023-08-12T05:59:30;14.47;;;8.33;;
77061;SDS011;65989;51.686;5.138;2023-08-12T06:01:55;15.83;;;8.20;;
77061;SDS011;65989;51.686;5.138;2023-08-12T06:04:20;12.97;;;7.43;;
77061;SDS011;65989;51.686;5.138;2023-08-12T06:06:46;12.07;;;6.97;;
77061;SDS011;65989;51.686;5.138;2023-08-12T06:09:11;9.60;;;6.73;;
77061;SDS011;65989;51.686;5.138;2023-08-12T06:11:36;11.40;;;6.37;;
77061;SDS011;65989;51.686;5.138;2023-08-12T06:14:01;9.43;;;6.40;;
77061;SDS011;65989;51.686;5.138;2023-08-12T06:16:27;10.17;;;6.53;;
77061;SDS011;65989;51.686;5.138;2023-08-12T06:18:52;13.03;;;6.10;;
77061;SDS011;65989;51.686;5.138;2023-08-12T06:21:17;10.73;;;6.00;;
77061;SDS011;65989;51.686;5.138;2023-08-12T06:23:42;8.77;;;6.20;;
77061;SDS011;65989;51.686;5.138;2023-08-12T06:26:08;8.03;;;5.67;;
77061;SDS011;65989;51.686;5.138;2023-08-12T06:28:33;8.67;;;5.30;;
77061;SDS011;65989;51.686;5.138;2023-08-12T06:30:58;9.18;;;5.10;;
77061;SDS011;65989;51.686;5.138;2023-08-12T06:33:23;8.30;;;4.60;;
77061;SDS011;65989;51.686;5.138;2023-08-12T06:35:49;7.47;;;4.40;;
77061;SDS011;65989;51.686;5.138;2023-08-12T06:38:15;7.80;;;4.57;;
77061;SDS011;65989;51.686;5.138;2023-08-12T06:40:40;7.23;;;4.60;;
77061;SDS011;65989;51.686;5.138;2023-08-12T06:43:06;6.70;;;4.27;;
77061;SDS011;65989;51.686;5.138;2023-08-12T06:45:32;7.72;;;5.00;;
77061;SDS011;65989;51.686;5.138;2023-08-12T06:47:58;7.37;;;4.53;;
77061;SDS011;65989;51.686;5.138;2023-08-12T06:50:23;7.63;;;4.40;;
77061;SDS011;65989;51.686;5.138;2023-08-12T06:52:48;8.10;;;4.50;;
77061;SDS011;65989;51.686;5.138;2023-08-12T06:55:13;7.17;;;4.43;;
77061;SDS011;65989;51.686;5.138;2023-08-12T06:57:39;8.67;;;4.00;;
77061;SDS011;65989;51.686;5.138;2023-08-12T07:00:04;7.87;;;4.23;;
77061;SDS011;65989;51.686;5.138;2023-08-12T07:02:30;6.47;;;4.15;;
77061;SDS011;65989;51.686;5.138;2023-08-12T07:04:55;6.37;;;3.93;;
77061;SDS011;65989;51.686;5.138;2023-08-12T07:07:20;6.33;;;4.20;;
77061;SDS011;65989;51.686;5.138;2023-08-12T07:09:46;6.60;;;4.20;;
77061;SDS011;65989;51.686;5.138;2023-08-12T07:12:11;7.90;;;4.37;;
77061;SDS011;65989;51.686;5.138;2023-08-12T07:14:36;5.60;;;4.03;;
77061;SDS011;65989;51.686;5.138;2023-08-12T07:17:01;6.57;;;3.63;;
77061;SDS011;65989;51.686;5.138;2023-08-12T07:19:27;5.53;;;3.40;;
77061;SDS011;65989;51.686;5.138;2023-08-12T07:21:52;4.87;;;3.20;;
77061;SDS011;65989;51.686;5.138;2023-08-12T07:24:17;6.43;;;3.70;;
77061;SDS011;65989;51.686;5.138;2023-08-12T07:26:43;5.93;;;3.60;;
77061;SDS011;65989;51.686;5.138;2023-08-12T07:29:08;6.67;;;3.67;;
77061;SDS011;65989;51.686;5.138;2023-08-12T07:31:33;5.83;;;3.77;;
77061;SDS011;65989;51.686;5.138;2023-08-12T07:33:58;7.70;;;3.80;;
77061;SDS011;65989;51.686;5.138;2023-08-12T07:36:24;5.50;;;3.50;;
77061;SDS011;65989;51.686;5.138;2023-08-12T07:38:49;6.60;;;3.83;;
77061;SDS011;65989;51.686;5.138;2023-08-12T07:41:14;10.33;;;4.30;;
77061;SDS011;65989;51.686;5.138;2023-08-12T07:43:39;6.20;;;3.87;;
77061;SDS011;65989;51.686;5.138;2023-08-12T07:46:05;7.40;;;4.33;;
77061;SDS011;65989;51.686;5.138;2023-08-12T07:48:30;6.93;;;4.23;;
77061;SDS011;65989;51.686;5.138;2023-08-12T07:50:58;6.40;;;4.17;;
77061;SDS011;65989;51.686;5.138;2023-08-12T07:53:24;6.57;;;4.55;;
77061;SDS011;65989;51.686;5.138;2023-08-12T07:55:50;6.17;;;4.13;;
77061;SDS011;65989;51.686;5.138;2023-08-12T07:58:15;6.27;;;4.20;;
77061;SDS011;65989;51.686;5.138;2023-08-12T08:00:40;6.27;;;4.70;;
77061;SDS011;65989;51.686;5.138;2023-08-12T08:03:06;6.80;;;4.53;;
77061;SDS011;65989;51.686;5.138;2023-08-12T08:05:31;6.27;;;4.93;;
77061;SDS011;65989;51.686;5.138;2023-08-12T08:07:56;8.40;;;4.53;;
77061;SDS011;65989;51.686;5.138;2023-08-12T08:10:21;6.90;;;4.50;;
77061;SDS011;65989;51.686;5.138;2023-08-12T08:12:47;8.63;;;3.70;;
77061;SDS011;65989;51.686;5.138;2023-08-12T08:15:12;5.57;;;3.23;;
77061;SDS011;65989;51.686;5.138;2023-08-12T08:17:37;5.17;;;3.10;;
77061;SDS011;65989;51.686;5.138;2023-08-12T08:20:03;3.90;;;2.57;;
77061;SDS011;65989;51.686;5.138;2023-08-12T08:22:30;3.70;;;2.50;;
77061;SDS011;65989;51.686;5.138;2023-08-12T08:24:55;4.00;;;2.60;;
77061;SDS011;65989;51.686;5.138;2023-08-12T08:27:20;5.67;;;2.60;;
77061;SDS011;65989;51.686;5.138;2023-08-12T08:29:46;5.40;;;2.80;;
77061;SDS011;65989;51.686;5.138;2023-08-12T08:32:11;4.40;;;2.43;;
77061;SDS011;65989;51.686;5.138;2023-08-12T08:34:36;3.60;;;1.80;;
77061;SDS011;65989;51.686;5.138;2023-08-12T08:37:01;4.53;;;1.60;;
77061;SDS011;65989;51.686;5.138;2023-08-12T08:39:27;4.20;;;1.80;;
77061;SDS011;65989;51.686;5.138;2023-08-12T08:41:56;7.10;;;2.10;;
77061;SDS011;65989;51.686;5.138;2023-08-12T08:44:21;6.85;;;2.00;;
77061;SDS011;65989;51.686;5.138;2023-08-12T08:46:47;3.97;;;1.90;;
77061;SDS011;65989;51.686;5.138;2023-08-12T08:49:13;4.97;;;1.63;;
77061;SDS011;65989;51.686;5.138;2023-08-12T08:51:39;3.72;;;1.60;;
77061;SDS011;65989;51.686;5.138;2023-08-12T08:54:05;4.63;;;1.67;;
77061;SDS011;65989;51.686;5.138;2023-08-12T08:56:31;6.28;;;1.60;;
77061;SDS011;65989;51.686;5.138;2023-08-12T08:58:57;3.00;;;1.30;;
77061;SDS011;65989;51.686;5.138;2023-08-12T09:01:22;4.25;;;1.52;;
77061;SDS011;65989;51.686;5.138;2023-08-12T09:03:48;3.50;;;1.40;;
77061;SDS011;65989;51.686;5.138;2023-08-12T09:06:14;3.20;;;1.40;;
77061;SDS011;65989;51.686;5.138;2023-08-12T09:08:40;6.00;;;1.50;;
77061;SDS011;65989;51.686;5.138;2023-08-12T09:11:05;4.63;;;1.65;;
77061;SDS011;65989;51.686;5.138;2023-08-12T09:13:31;5.53;;;1.90;;
77061;SDS011;65989;51.686;5.138;2023-08-12T09:15:56;6.43;;;1.60;;
77061;SDS011;65989;51.686;5.138;2023-08-12T09:18:21;6.90;;;1.90;;
77061;SDS011;65989;51.686;5.138;2023-08-12T09:20:52;5.93;;;1.73;;
77061;SDS011;65989;51.686;5.138;2023-08-12T09:23:19;7.35;;;2.05;;
77061;SDS011;65989;51.686;5.138;2023-08-12T09:25:44;5.87;;;1.77;;
77061;SDS011;65989;51.686;5.138;2023-08-12T09:28:10;7.10;;;1.92;;
77061;SDS011;65989;51.686;5.138;2023-08-12T09:30:36;11.37;;;2.17;;
77061;SDS011;65989;51.686;5.138;2023-08-12T09:33:02;9.82;;;2.40;;
77061;SDS011;65989;51.686;5.138;2023-08-12T09:35:35;7.82;;;2.00;;
77061;SDS011;65989;51.686;5.138;2023-08-12T09:38:02;8.82;;;2.30;;
77061;SDS011;65989;51.686;5.138;2023-08-12T09:40:28;7.27;;;1.90;;
77061;SDS011;65989;51.686;5.138;2023-08-12T09:42:53;9.30;;;1.92;;
77061;SDS011;65989;51.686;5.138;2023-08-12T09:45:22;8.23;;;2.10;;
77061;SDS011;65989;51.686;5.138;2023-08-12T09:47:48;9.85;;;2.50;;
77061;SDS011;65989;51.686;5.138;2023-08-12T09:50:13;6.93;;;1.73;;
77061;SDS011;65989;51.686;5.138;2023-08-12T09:52:39;6.73;;;2.10;;
77061;SDS011;65989;51.686;5.138;2023-08-12T09:55:04;13.57;;;2.10;;
77061;SDS011;65989;51.686;5.138;2023-08-12T09:57:30;6.15;;;1.90;;
77061;SDS011;65989;51.686;5.138;2023-08-12T09:59:58;9.40;;;2.33;;
77061;SDS011;65989;51.686;5.138;2023-08-12T10:02:25;7.55;;;2.63;;
77061;SDS011;65989;51.686;5.138;2023-08-12T10:04:51;6.17;;;2.00;;
77061;SDS011;65989;51.686;5.138;2023-08-12T10:07:18;8.35;;;2.22;;
77061;SDS011;65989;51.686;5.138;2023-08-12T10:09:44;9.60;;;2.67;;
77061;SDS011;65989;51.686;5.138;2023-08-12T10:12:09;9.03;;;2.53;;
77061;SDS011;65989;51.686;5.138;2023-08-12T10:14:35;7.63;;;2.17;;
77061;SDS011;65989;51.686;5.138;2023-08-12T10:17:00;9.03;;;2.20;;
77061;SDS011;65989;51.686;5.138;2023-08-12T10:19:26;8.40;;;1.73;;
77061;SDS011;65989;51.686;5.138;2023-08-12T10:21:54;7.50;;;1.90;;
77061;SDS011;65989;51.686;5.138;2023-08-12T10:24:20;8.18;;;2.05;;
77061;SDS011;65989;51.686;5.138;2023-08-12T10:26:46;11.95;;;1.80;;
77061;SDS011;65989;51.686;5.138;2023-08-12T10:29:11;5.73;;;1.90;;
77061;SDS011;65989;51.686;5.138;2023-08-12T10:31:38;6.83;;;2.00;;
77061;SDS011;65989;51.686;5.138;2023-08-12T10:34:03;7.93;;;1.90;;
77061;SDS011;65989;51.686;5.138;2023-08-12T10:36:28;8.30;;;1.90;;
77061;SDS011;65989;51.686;5.138;2023-08-12T10:38:55;7.67;;;2.07;;
77061;SDS011;65989;51.686;5.138;2023-08-12T10:41:21;10.23;;;2.00;;
77061;SDS011;65989;51.686;5.138;2023-08-12T10:44:00;6.95;;;2.22;;
77061;SDS011;65989;51.686;5.138;2023-08-12T10:46:35;6.97;;;2.08;;
77061;SDS011;65989;51.686;5.138;2023-08-12T10:54:14;9.48;;;2.30;;
77061;SDS011;65989;51.686;5.138;2023-08-12T11:00:09;9.55;;;2.40;;
77061;SDS011;65989;51.686;5.138;2023-08-12T11:02:18;9.05;;;2.30;;
77061;SDS011;65989;51.686;5.138;2023-08-12T11:04:44;9.23;;;2.27;;
77061;SDS011;65989;51.686;5.138;2023-08-12T11:07:17;10.68;;;2.42;;
77061;SDS011;65989;51.686;5.138;2023-08-12T11:09:43;10.43;;;2.60;;
77061;SDS011;65989;51.686;5.138;2023-08-12T11:12:09;9.37;;;2.47;;
77061;SDS011;65989;51.686;5.138;2023-08-12T11:14:46;10.57;;;2.47;;
77061;SDS011;65989;51.686;5.138;2023-08-12T11:17:15;6.93;;;2.38;;
77061;SDS011;65989;51.686;5.138;2023-08-12T11:19:41;11.65;;;2.40;;
77061;SDS011;65989;51.686;5.138;2023-08-12T11:22:07;13.90;;;3.08;;
77061;SDS011;65989;51.686;5.138;2023-08-12T11:24:32;11.23;;;2.40;;
77061;SDS011;65989;51.686;5.138;2023-08-12T11:26:59;12.18;;;2.28;;
77061;SDS011;65989;51.686;5.138;2023-08-12T11:29:25;9.50;;;2.40;;
77061;SDS011;65989;51.686;5.138;2023-08-12T11:31:50;14.43;;;2.43;;
77061;SDS011;65989;51.686;5.138;2023-08-12T11:34:15;9.77;;;2.03;;
77061;SDS011;65989;51.686;5.138;2023-08-12T11:36:41;7.47;;;2.20;;
77061;SDS011;65989;51.686;5.138;2023-08-12T11:39:07;8.82;;;2.47;;
77061;SDS011;65989;51.686;5.138;2023-08-12T11:41:33;7.07;;;2.30;;
77061;SDS011;65989;51.686;5.138;2023-08-12T11:43:58;8.00;;;2.50;;
77061;SDS011;65989;51.686;5.138;2023-08-12T11:46:24;8.90;;;2.33;;
77061;SDS011;65989;51.686;5.138;2023-08-12T11:48:50;11.45;;;2.63;;
77061;SDS011;65989;51.686;5.138;2023-08-12T11:51:15;7.53;;;2.40;;
77061;SDS011;65989;51.686;5.138;2023-08-12T11:53:40;9.93;;;2.30;;
77061;SDS011;65989;51.686;5.138;2023-08-12T11:56:06;10.30;;;2.70;;
77061;SDS011;65989;51.686;5.138;2023-08-12T11:58:37;10.57;;;2.43;;
77061;SDS011;65989;51.686;5.138;2023-08-12T12:01:02;9.90;;;2.67;;
77061;SDS011;65989;51.686;5.138;2023-08-12T12:03:28;9.17;;;2.50;;
77061;SDS011;65989;51.686;5.138;2023-08-12T12:05:56;10.52;;;2.58;;
77061;SDS011;65989;51.686;5.138;2023-08-12T12:08:22;15.30;;;3.00;;
77061;SDS011;65989;51.686;5.138;2023-08-12T12:10:47;12.70;;;2.53;;
77061;SDS011;65989;51.686;5.138;2023-08-12T12:13:12;12.67;;;2.30;;
77061;SDS011;65989;51.686;5.138;2023-08-12T12:15:42;11.48;;;2.30;;
77061;SDS011;65989;51.686;5.138;2023-08-12T12:18:11;10.60;;;2.60;;
77061;SDS011;65989;51.686;5.138;2023-08-12T12:20:41;15.02;;;2.38;;
77061;SDS011;65989;51.686;5.138;2023-08-12T12:23:07;7.70;;;2.10;;
77061;SDS011;65989;51.686;5.138;2023-08-12T12:25:32;8.80;;;2.60;;
77061;SDS011;65989;51.686;5.138;2023-08-12T12:27:57;8.60;;;2.70;;
77061;SDS011;65989;51.686;5.138;2023-08-12T12:30:22;10.13;;;2.80;;
77061;SDS011;65989;51.686;5.138;2023-08-12T12:32:48;11.73;;;2.53;;
77061;SDS011;65989;51.686;5.138;2023-08-12T12:35:13;8.13;;;2.30;;
77061;SDS011;65989;51.686;5.138;2023-08-12T12:37:39;12.83;;;2.63;;
77061;SDS011;65989;51.686;5.138;2023-08-12T12:40:04;8.77;;;2.43;;
77061;SDS011;65989;51.686;5.138;2023-08-12T12:42:30;14.60;;;2.80;;
77061;SDS011;65989;51.686;5.138;2023-08-12T12:44:55;11.77;;;2.60;;
77061;SDS011;65989;51.686;5.138;2023-08-12T12:47:21;9.27;;;2.33;;
77061;SDS011;65989;51.686;5.138;2023-08-12T12:49:46;9.13;;;2.20;;
77061;SDS011;65989;51.686;5.138;2023-08-12T12:52:11;9.33;;;2.57;;
77061;SDS011;65989;51.686;5.138;2023-08-12T12:54:36;16.25;;;2.55;;
77061;SDS011;65989;51.686;5.138;2023-08-12T12:57:02;8.73;;;2.50;;
77061;SDS011;65989;51.686;5.138;2023-08-12T12:59:28;9.10;;;2.60;;
77061;SDS011;65989;51.686;5.138;2023-08-12T13:01:53;10.57;;;2.70;;
77061;SDS011;65989;51.686;5.138;2023-08-12T13:04:19;11.37;;;2.57;;
77061;SDS011;65989;51.686;5.138;2023-08-12T13:06:44;13.07;;;2.60;;
77061;SDS011;65989;51.686;5.138;2023-08-12T13:09:09;10.00;;;2.70;;
77061;SDS011;65989;51.686;5.138;2023-08-12T13:11:35;13.47;;;2.93;;
77061;SDS011;65989;51.686;5.138;2023-08-12T13:14:00;11.73;;;3.03;;
77061;SDS011;65989;51.686;5.138;2023-08-12T13:16:25;9.93;;;2.67;;
77061;SDS011;65989;51.686;5.138;2023-08-12T13:18:51;11.83;;;2.80;;
77061;SDS011;65989;51.686;5.138;2023-08-12T13:21:16;14.00;;;3.10;;
77061;SDS011;65989;51.686;5.138;2023-08-12T13:23:41;11.13;;;2.77;;
77061;SDS011;65989;51.686;5.138;2023-08-12T13:26:06;11.37;;;2.40;;
77061;SDS011;65989;51.686;5.138;2023-08-12T13:28:32;10.17;;;2.60;;
77061;SDS011;65989;51.686;5.138;2023-08-12T13:30:57;11.77;;;2.67;;
77061;SDS011;65989;51.686;5.138;2023-08-12T13:33:22;9.87;;;2.53;;
77061;SDS011;65989;51.686;5.138;2023-08-12T13:35:47;16.27;;;2.63;;
77061;SDS011;65989;51.686;5.138;2023-08-12T13:38:13;10.73;;;2.60;;
77061;SDS011;65989;51.686;5.138;2023-08-12T13:40:38;11.00;;;2.77;;
77061;SDS011;65989;51.686;5.138;2023-08-12T13:43:03;12.50;;;2.63;;
77061;SDS011;65989;51.686;5.138;2023-08-12T13:45:28;11.30;;;2.63;;
77061;SDS011;65989;51.686;5.138;2023-08-12T13:47:54;9.33;;;2.13;;
77061;SDS011;65989;51.686;5.138;2023-08-12T13:50:20;10.93;;;2.27;;
77061;SDS011;65989;51.686;5.138;2023-08-12T13:52:45;9.20;;;2.50;;
77061;SDS011;65989;51.686;5.138;2023-08-12T13:55:12;14.02;;;2.83;;
77061;SDS011;65989;51.686;5.138;2023-08-12T13:57:37;10.33;;;2.70;;
77061;SDS011;65989;51.686;5.138;2023-08-12T14:00:02;13.67;;;2.50;;
77061;SDS011;65989;51.686;5.138;2023-08-12T14:02:31;11.52;;;2.38;;
77061;SDS011;65989;51.686;5.138;2023-08-12T14:04:56;8.57;;;2.40;;
77061;SDS011;65989;51.686;5.138;2023-08-12T14:07:22;12.00;;;2.40;;
77061;SDS011;65989;51.686;5.138;2023-08-12T14:09:47;8.67;;;2.30;;
77061;SDS011;65989;51.686;5.138;2023-08-12T14:12:12;11.70;;;2.65;;
77061;SDS011;65989;51.686;5.138;2023-08-12T14:14:38;13.23;;;2.90;;
77061;SDS011;65989;51.686;5.138;2023-08-12T14:17:05;10.77;;;2.47;;
77061;SDS011;65989;51.686;5.138;2023-08-12T14:19:30;9.20;;;2.50;;
77061;SDS011;65989;51.686;5.138;2023-08-12T14:21:55;11.13;;;2.80;;
77061;SDS011;65989;51.686;5.138;2023-08-12T14:24:20;8.07;;;2.33;;
77061;SDS011;65989;51.686;5.138;2023-08-12T14:26:46;12.30;;;3.03;;
77061;SDS011;65989;51.686;5.138;2023-08-12T14:29:11;10.37;;;2.73;;
77061;SDS011;65989;51.686;5.138;2023-08-12T14:31:37;11.87;;;3.10;;
77061;SDS011;65989;51.686;5.138;2023-08-12T14:34:02;8.77;;;2.57;;